Terminal Aerodrome Forecast
Issued by NWS

Home | Current Version | Previous Version | Graphics & Text | Print | Product List | Glossary On
Versions: 1 2 3 4 5 6 7 8 9 10 11 12 13 14 15 16 17
964
FTUS43 KFGF 300520
TAFBJI
TAF
KBJI 300520Z 3006/0106 35006KT 4SM -SN OVC008
      TEMPO 3006/3009 2SM -SN OVC005
     FM301200 36007KT P6SM -SN OVC006
     FM301800 36007KT P6SM -DZ OVC006
     FM302200 34008KT P6SM OVC006=

USA.gov is the U.S. government's official web portal to all federal, state and local government web resources and services.